Time;durP1;ratioP1;P1;durP2;ratioP2;P2;SDS_P1;SDS_P2;PMS_P1;PMS_P2;Temp;Humidity;BMP_temperature;BMP_pressure;BME280_temperature;BME280_humidity;BME280_pressure;Samples;Min_cycle;Max_cycle;Signal;HPM_P1;HPM_P2
2022/08/31 00:04:31;;;;;;;4.90;4.03;;;21.00;99.90;;;21.38;63.75;102090.84;4824183;29;20087;-67
2022/08/31 00:07:00;;;;;;;4.72;4.20;;;20.90;99.90;;;21.29;63.56;102098.31;4825426;29;20088;-67
2022/08/31 00:09:31;;;;;;;5.95;3.80;;;20.90;99.90;;;21.32;63.41;102091.03;4825511;29;20137;-67
2022/08/31 00:12:00;;;;;;;8.02;3.90;;;20.90;99.90;;;21.24;63.34;102094.84;4825215;29;20066;-67
2022/08/31 00:14:28;;;;;;;7.55;3.85;;;20.80;99.90;;;21.22;63.38;102096.69;4824916;29;20077;-67
2022/08/31 00:16:57;;;;;;;6.55;4.20;;;20.80;99.90;;;21.23;63.13;102085.91;4824903;29;20471;-67
2022/08/31 00:19:25;;;;;;;6.32;4.10;;;20.80;99.90;;;21.20;62.93;102087.78;4824926;29;20047;-67
2022/08/31 00:21:53;;;;;;;5.88;3.60;;;20.80;99.90;;;21.19;62.95;102092.31;4825079;29;20050;-66
2022/08/31 00:24:22;;;;;;;5.85;4.05;;;20.80;99.90;;;21.15;62.71;102096.00;4824690;29;20054;-67
2022/08/31 00:26:51;;;;;;;5.70;3.40;;;20.80;99.90;;;21.05;62.66;102090.91;4824788;29;20144;-67
2022/08/31 00:29:20;;;;;;;4.63;3.97;;;20.70;99.90;;;21.07;62.50;102103.41;4824962;29;20055;-67
2022/08/31 00:31:48;;;;;;;4.65;3.80;;;20.70;99.90;;;21.06;62.32;102095.41;4824951;29;20327;-67
2022/08/31 00:34:17;;;;;;;5.60;4.03;;;20.70;99.90;;;21.11;62.08;102091.66;4824854;29;20224;-67
2022/08/31 00:36:46;;;;;;;4.80;3.90;;;20.70;99.90;;;21.08;61.76;102083.63;4825185;29;20039;-67
2022/08/31 00:39:14;;;;;;;6.53;3.90;;;20.70;99.90;;;21.03;61.76;102080.22;4824928;29;20129;-67
2022/08/31 00:41:43;;;;;;;4.80;3.53;;;20.70;99.90;;;21.08;61.84;102094.41;4824828;29;20043;-67
2022/08/31 00:44:12;;;;;;;9.73;3.30;;;20.70;99.90;;;21.00;61.63;102090.16;4824851;29;20050;-67
2022/08/31 00:46:43;;;;;;;10.10;3.70;;;20.60;99.90;;;21.02;61.47;102093.72;4823577;29;20061;-67
2022/08/31 00:49:17;;;;;;;5.65;3.70;;;20.60;99.90;;;20.96;61.39;102093.84;4824502;29;20558;-67
2022/08/31 00:51:50;;;;;;;3.42;3.13;;;20.60;99.90;;;20.96;61.28;102093.84;4824830;29;20082;-67
2022/08/31 00:54:25;;;;;;;10.10;3.92;;;20.60;99.90;;;20.94;61.20;102084.94;4824674;29;20103;-66
2022/08/31 00:56:54;;;;;;;4.55;3.38;;;20.60;99.90;;;20.90;60.94;102094.91;4824497;29;20089;-67
2022/08/31 00:59:25;;;;;;;7.07;3.88;;;20.50;99.90;;;20.93;61.05;102093.91;4824914;29;20046;-67
2022/08/31 01:01:54;;;;;;;3.45;3.15;;;20.50;99.90;;;20.96;61.00;102093.84;4824684;29;20043;-67
2022/08/31 01:04:23;;;;;;;3.40;3.10;;;20.60;99.90;;;20.97;60.80;102085.72;4823370;29;20149;-67
2022/08/31 01:06:52;;;;;;;3.90;3.60;;;20.60;99.90;;;21.00;60.72;102088.31;4824620;29;20066;-67
2022/08/31 01:09:23;;;;;;;6.93;3.38;;;20.60;99.90;;;21.02;60.70;102097.25;4824480;29;20553;-67
2022/08/31 01:11:52;;;;;;;4.47;3.38;;;20.60;99.90;;;21.03;60.47;102087.38;4824183;29;20554;-67
2022/08/31 01:14:20;;;;;;;8.48;3.72;;;20.60;99.90;;;20.98;60.38;102083.94;4824660;29;20046;-67
2022/08/31 01:16:54;;;;;;;6.22;3.50;;;20.60;99.90;;;20.96;60.37;102089.34;4823186;29;20537;-67
2022/08/31 01:19:33;;;;;;;4.72;3.35;;;20.50;99.90;;;20.98;60.38;102089.31;4838327;29;20062;-67
2022/08/31 01:22:12;;;;;;;4.38;3.58;;;20.50;99.90;;;20.94;60.50;102087.63;4824574;29;20054;-67
2022/08/31 01:24:46;;;;;;;4.07;3.35;;;20.50;99.90;;;20.95;60.12;102087.56;4824449;29;20399;-67
2022/08/31 01:27:22;;;;;;;4.90;3.95;;;20.50;99.90;;;20.89;60.07;102086.84;4824240;29;20051;-67
2022/08/31 01:29:50;;;;;;;6.80;3.30;;;20.50;99.90;;;20.76;60.14;102085.41;4824414;29;20046;-67
2022/08/31 01:32:18;;;;;;;6.80;3.28;;;20.40;99.90;;;20.72;60.52;102091.81;4824286;29;20046;-67
2022/08/31 01:34:47;;;;;;;3.60;3.30;;;20.40;99.90;;;20.78;60.33;102095.22;4824098;29;20157;-67
2022/08/31 01:37:16;;;;;;;3.50;3.10;;;20.40;99.90;;;20.77;60.26;102088.06;4827388;29;20047;-67
2022/08/31 01:39:45;;;;;;;5.22;3.17;;;20.40;99.90;;;20.78;60.19;102088.94;4827669;29;20115;-67
2022/08/31 01:42:14;;;;;;;3.72;3.40;;;20.40;99.90;;;20.73;59.94;102096.28;4827747;29;20126;-67
2022/08/31 01:44:42;;;;;;;3.20;2.90;;;20.30;99.90;;;20.74;59.91;102093.53;4827657;29;20074;-67
2022/08/31 01:47:11;;;;;;;4.72;3.28;;;20.30;99.90;;;20.65;59.88;102080.34;4826318;29;20443;-67
2022/08/31 01:49:39;;;;;;;4.50;3.47;;;20.30;99.90;;;20.66;59.83;102092.84;4826279;29;20451;-67
2022/08/31 01:52:08;;;;;;;9.02;3.88;;;20.30;99.90;;;20.52;59.83;102071.69;4826177;29;20077;-67
2022/08/31 01:54:37;;;;;;;4.88;3.15;;;20.20;99.90;;;20.30;60.00;102048.13;4826056;29;20458;-67
2022/08/31 01:57:09;;;;;;;4.05;3.45;;;20.20;99.90;;;20.57;59.94;102094.00;4826044;29;20053;-72
2022/08/31 02:00:00;;;;;;;4.20;2.90;;;20.20;99.90;;;20.58;60.01;102095.75;4820473;29;20497;-72
2022/08/31 02:02:45;;;;;;;10.23;4.22;;;20.20;99.90;;;20.37;60.17;102061.34;4826047;29;20062;-71
2022/08/31 02:05:14;;;;;;;7.47;3.80;;;20.20;99.90;;;20.56;60.03;102092.22;4825987;29;20141;-71
2022/08/31 02:07:45;;;;;;;6.40;3.45;;;20.20;99.90;;;20.48;59.88;102088.84;4827653;29;20167;-71
2022/08/31 02:10:14;;;;;;;3.72;3.42;;;20.20;99.90;;;20.51;60.05;102088.78;4825570;29;20047;-71
2022/08/31 02:12:44;;;;;;;4.78;3.38;;;20.10;99.90;;;20.08;60.03;102010.13;4825901;29;20493;-71
2022/08/31 02:15:13;;;;;;;4.93;3.23;;;20.10;99.90;;;20.55;59.92;102093.16;4827072;29;20046;-71
2022/08/31 02:17:41;;;;;;;4.00;3.30;;;20.10;99.90;;;20.58;59.72;102086.78;4826987;29;20379;-71
2022/08/31 02:20:14;;;;;;;5.53;3.10;;;20.20;99.90;;;20.50;59.60;102088.78;4825866;29;20101;-71
2022/08/31 02:22:43;;;;;;;4.05;3.17;;;20.10;99.90;;;20.43;59.80;102093.47;4825988;29;20050;-71
2022/08/31 02:25:11;;;;;;;7.88;3.40;;;20.10;99.90;;;20.40;59.93;102092.66;4826929;29;20097;-71
2022/08/31 02:27:40;;;;;;;3.35;3.05;;;20.00;99.90;;;20.40;60.09;102087.28;4825608;29;20098;-71
2022/08/31 02:30:15;;;;;;;5.07;3.22;;;20.00;99.90;;;20.36;60.19;102077.53;4825676;29;20516;-71
2022/08/31 02:32:44;;;;;;;6.65;3.78;;;20.00;99.90;;;20.36;60.11;102085.59;4825653;29;20075;-71
2022/08/31 02:35:13;;;;;;;3.40;3.10;;;20.00;99.90;;;20.29;60.00;102089.34;4826956;29;20115;-71
2022/08/31 02:37:42;;;;;;;3.80;3.42;;;20.00;99.90;;;20.35;60.32;102082.00;4825491;29;20057;-71
2022/08/31 02:40:12;;;;;;;4.32;3.05;;;19.90;99.90;;;20.23;60.25;102090.38;4825690;29;20394;-72
2022/08/31 02:42:43;;;;;;;3.45;3.15;;;19.90;99.90;;;20.23;60.14;102095.75;4825577;29;20055;-71
2022/08/31 02:45:25;;;;;;;5.00;3.50;;;19.80;99.90;;;20.21;60.55;102084.16;4826736;29;20378;-71
2022/08/31 02:47:59;;;;;;;3.83;3.42;;;19.80;99.90;;;20.14;60.45;102104.00;4824393;29;20078;-71
2022/08/31 02:50:50;;;;;;;7.72;3.78;;;19.70;99.90;;;20.15;60.51;102089.63;4826006;29;20395;-72
2022/08/31 02:53:22;;;;;;;5.15;3.53;;;19.80;99.90;;;20.10;60.66;102082.63;4826666;29;20050;-72
2022/08/31 02:55:51;;;;;;;6.35;3.22;;;19.70;99.90;;;20.06;60.59;102086.28;4825622;29;20046;-71
2022/08/31 02:58:20;;;;;;;4.18;3.50;;;19.70;99.90;;;20.07;60.70;102088.97;4825390;29;20054;-72
2022/08/31 03:00:53;;;;;;;7.78;3.80;;;19.70;99.90;;;20.01;60.61;102086.41;4826939;29;20121;-71
2022/08/31 03:03:22;;;;;;;4.72;3.47;;;19.70;99.90;;;19.95;60.99;102080.31;4826886;29;20107;-71
2022/08/31 03:05:50;;;;;;;4.68;3.30;;;19.60;99.90;;;19.96;61.09;102090.09;4826986;29;20150;-71
2022/08/31 03:08:19;;;;;;;3.38;3.03;;;19.60;99.90;;;20.00;60.90;102090.00;4825253;29;20055;-71
2022/08/31 03:10:50;;;;;;;5.28;3.30;;;19.60;99.90;;;20.02;60.79;102093.53;4825562;29;20099;-71
2022/08/31 03:13:18;;;;;;;7.05;3.95;;;19.60;99.90;;;19.86;60.96;102094.81;4825287;29;20058;-71
2022/08/31 03:15:47;;;;;;;5.30;3.30;;;19.50;99.90;;;19.86;61.21;102089.44;4826145;29;20129;-72
2022/08/31 03:18:18;;;;;;;5.22;3.13;;;19.50;99.90;;;19.91;60.94;102087.56;4825050;29;20057;-71
2022/08/31 03:20:47;;;;;;;4.60;3.67;;;19.50;99.90;;;19.91;61.07;102087.56;4824946;29;20134;-71
2022/08/31 03:23:15;;;;;;;5.82;3.30;;;19.50;99.90;;;19.92;61.11;102092.00;4824799;29;20122;-71
2022/08/31 03:25:43;;;;;;;3.85;3.55;;;19.60;99.90;;;19.80;61.35;102087.78;4824760;29;20054;-71
2022/08/31 03:28:12;;;;;;;3.55;3.25;;;19.50;99.90;;;19.91;61.16;102097.41;4825975;29;20107;-71
2022/08/31 03:30:45;;;;;;;3.95;3.22;;;19.50;99.90;;;19.90;60.92;102093.81;4824684;29;20050;-71
2022/08/31 03:33:14;;;;;;;3.83;3.38;;;19.50;99.90;;;19.89;61.22;102101.94;4824861;29;20401;-71
2022/08/31 03:35:44;;;;;;;4.03;3.40;;;19.50;99.90;;;19.89;61.13;102105.50;4824536;29;20095;-71
2022/08/31 03:38:15;;;;;;;4.10;3.30;;;19.50;99.90;;;19.89;61.26;102096.56;4824647;29;20063;-71
2022/08/31 03:40:44;;;;;;;4.93;3.13;;;19.50;99.90;;;19.81;61.40;102091.38;4824242;29;20069;-71
2022/08/31 03:43:13;;;;;;;5.00;3.13;;;19.50;99.90;;;19.92;61.26;102101.88;4824511;29;20103;-71
2022/08/31 03:45:43;;;;;;;4.32;3.45;;;19.50;99.90;;;19.87;61.22;102101.06;4824533;29;20050;-71
2022/08/31 03:48:12;;;;;;;5.57;3.75;;;19.50;99.90;;;19.85;61.21;102097.53;4824378;29;20493;-71
2022/08/31 03:50:45;;;;;;;4.80;3.75;;;19.40;99.90;;;19.84;61.33;102104.72;4824558;29;20508;-71
2022/08/31 03:53:18;;;;;;;4.28;3.60;;;19.40;99.90;;;19.84;61.38;102102.03;4824433;29;20469;-71
2022/08/31 03:55:59;;;;;;;4.05;3.42;;;19.50;99.90;;;19.58;61.75;102075.78;4824291;29;20054;-71
2022/08/31 03:58:31;;;;;;;6.22;3.58;;;19.40;99.90;;;19.75;61.49;102112.97;4823943;29;20054;-71
2022/08/31 04:01:00;;;;;;;3.70;3.38;;;19.40;99.90;;;19.78;61.47;102110.25;4824291;29;20569;-71
2022/08/31 04:03:49;;;;;;;6.70;3.67;;;19.40;99.90;;;19.71;61.78;102113.97;4825086;29;20058;-71
2022/08/31 04:06:37;;;;;;;4.82;3.10;;;19.30;99.90;;;19.71;61.81;102111.28;4825219;29;20069;-78
2022/08/31 04:09:25;;;;;;;4.25;3.47;;;19.30;99.90;;;19.77;61.62;102111.16;4825430;29;20085;-75
2022/08/31 04:12:14;;;;;;;6.25;3.42;;;19.40;99.90;;;19.72;61.70;102108.56;4824954;29;20055;-71
2022/08/31 04:15:19;;;;;;;3.78;3.20;;;19.40;99.90;;;19.69;61.76;102107.75;4819514;29;20046;-72
2022/08/31 04:17:50;;;;;;;4.32;3.90;;;19.30;99.90;;;19.66;61.47;102108.72;4825241;29;20058;-71
2022/08/31 04:20:44;;;;;;;4.07;3.78;;;19.30;99.90;;;19.59;61.75;102104.38;4824032;29;20060;-72
2022/08/31 04:23:14;;;;;;;3.63;3.33;;;19.30;99.90;;;19.65;61.63;102112.31;4824028;29;20050;-71
2022/08/31 04:25:47;;;;;;;6.10;3.50;;;19.30;99.90;;;19.61;61.38;102109.69;4825177;29;20046;-71
2022/08/31 04:28:16;;;;;;;4.55;3.75;;;19.30;99.90;;;19.61;61.40;102105.22;4823824;29;20115;-70
2022/08/31 04:30:47;;;;;;;6.40;3.47;;;19.30;99.90;;;19.55;61.32;102108.03;4823797;29;20046;-70
2022/08/31 04:33:16;;;;;;;4.30;3.20;;;19.20;99.90;;;19.55;61.29;102105.34;4823875;29;20175;-71
2022/08/31 04:35:45;;;;;;;6.75;3.67;;;19.20;99.90;;;19.25;61.12;102052.31;4823390;29;20082;-70
2022/08/31 04:38:15;;;;;;;4.32;3.40;;;19.20;99.90;;;19.54;61.04;102116.13;4823997;29;20145;-70
2022/08/31 04:40:45;;;;;;;3.33;3.03;;;19.20;99.90;;;19.49;61.01;102115.38;4824018;29;20046;-71
2022/08/31 04:43:14;;;;;;;5.63;3.58;;;19.10;99.90;;;19.51;60.80;102121.59;4824898;29;20126;-70
2022/08/31 04:45:43;;;;;;;3.85;3.53;;;19.10;99.90;;;19.45;60.46;102089.50;4824918;29;20050;-70
2022/08/31 04:48:14;;;;;;;4.95;3.67;;;19.20;99.90;;;19.38;60.64;102109.31;4823670;29;20515;-70
2022/08/31 04:50:43;;;;;;;5.65;3.13;;;19.00;99.90;;;19.43;60.59;102120.84;4823319;29;20087;-70
2022/08/31 04:53:11;;;;;;;6.75;3.17;;;19.10;99.90;;;19.46;60.51;102121.66;4823584;29;20107;-70
2022/08/31 04:55:43;;;;;;;3.72;3.33;;;19.10;99.90;;;19.50;60.33;102120.69;4823603;29;20046;-70
2022/08/31 04:58:14;;;;;;;3.33;3.08;;;19.10;99.90;;;19.45;60.06;102119.03;4823511;29;20046;-70
2022/08/31 05:00:43;;;;;;;3.58;3.22;;;19.10;99.90;;;19.32;60.17;102115.69;4823323;29;20413;-70
2022/08/31 05:03:14;;;;;;;5.45;3.50;;;19.00;99.90;;;19.40;60.24;102121.78;4824348;29;20055;-70
2022/08/31 05:05:45;;;;;;;3.90;3.20;;;19.00;99.90;;;19.39;59.70;102105.72;4823182;29;20081;-70
2022/08/31 05:08:14;;;;;;;4.57;3.75;;;19.10;99.90;;;19.44;59.38;102127.97;4823401;29;20050;-70
2022/08/31 05:10:47;;;;;;;3.58;3.28;;;19.10;99.90;;;19.45;58.95;102119.88;4823821;29;20053;-70
2022/08/31 05:13:15;;;;;;;3.92;3.63;;;19.10;99.90;;;19.46;58.56;102134.19;4822955;29;20050;-70
2022/08/31 05:15:45;;;;;;;5.90;3.45;;;19.10;99.90;;;19.36;58.07;102129.94;4824431;29;20046;-70
2022/08/31 05:18:19;;;;;;;5.10;2.90;;;19.00;99.90;;;19.40;58.16;102127.16;4823190;29;20103;-70
2022/08/31 05:20:54;;;;;;;3.78;3.17;;;19.00;99.90;;;19.37;57.74;102129.03;4823275;29;20062;-70
2022/08/31 05:23:23;;;;;;;4.10;3.42;;;19.00;99.90;;;19.26;57.68;102109.56;4824390;29;20050;-70
2022/08/31 05:25:53;;;;;;;5.25;3.17;;;19.00;99.90;;;19.39;57.62;102130.78;4823370;29;20046;-70
2022/08/31 05:28:22;;;;;;;3.37;2.90;;;19.00;99.90;;;19.47;57.00;102125.25;4824302;29;20405;-70
2022/08/31 05:30:50;;;;;;;4.38;3.30;;;19.10;99.90;;;19.46;56.28;102127.03;4823327;29;20099;-70
2022/08/31 05:33:43;;;;;;;5.05;2.90;;;19.20;99.90;;;19.51;55.88;102135.88;4820975;29;20055;-70
2022/08/31 05:36:14;;;;;;;3.25;2.95;;;19.20;99.90;;;19.59;55.49;102136.59;4822835;29;20054;-70
2022/08/31 05:38:44;;;;;;;4.60;3.08;;;19.20;99.90;;;19.64;55.18;102132.03;4822849;29;20056;-70
2022/08/31 05:41:15;;;;;;;;;;;19.30;99.90;;;19.78;54.77;102129.03;4823403;29;20066;-70
2022/08/31 05:43:44;;;;;;;3.08;2.88;;;19.50;99.90;;;19.82;54.03;102141.50;4824171;29;19925;-70
2022/08/31 05:46:14;;;;;;;4.85;2.90;;;19.50;99.90;;;19.96;54.05;102141.16;4822805;29;20053;-70
2022/08/31 05:48:44;;;;;;;4.15;2.50;;;19.60;99.90;;;20.00;54.12;102138.38;4822313;29;20141;-70
2022/08/31 05:51:18;;;;;;;4.07;3.13;;;19.70;99.90;;;20.14;53.60;102146.09;4822864;29;20050;-71
2022/08/31 05:53:47;;;;;;;4.25;2.80;;;19.80;99.90;;;20.30;53.55;102145.75;4824279;29;20058;-70
2022/08/31 05:56:22;;;;;;;3.15;2.83;;;19.90;99.90;;;20.45;53.07;102145.38;4822441;29;20490;-70
2022/08/31 05:58:53;;;;;;;2.97;2.67;;;20.00;99.90;;;20.63;53.63;102155.66;4822569;29;20055;-71
2022/08/31 06:01:29;;;;;;;3.17;2.83;;;20.30;99.90;;;20.94;53.12;102171.03;4822587;29;20056;-70
2022/08/31 06:04:19;;;;;;;3.30;3.10;;;20.50;99.90;;;20.93;53.31;102131.56;4822841;29;20470;-70
2022/08/31 06:06:47;;;;;;;3.28;2.85;;;20.70;99.90;;;21.18;52.92;102148.84;4824470;29;20061;-73
2022/08/31 06:09:20;;;;;;;7.40;2.72;;;20.70;99.90;;;21.37;52.72;102155.47;4823266;29;20058;-73
2022/08/31 06:11:52;;;;;;;3.20;2.90;;;20.90;99.90;;;21.27;52.79;102133.31;4822386;29;20064;-74
2022/08/31 06:14:22;;;;;;;3.22;2.67;;;21.00;99.90;;;21.50;52.45;102152.41;4823103;29;20409;-73
2022/08/31 06:16:52;;;;;;;3.03;2.70;;;21.10;99.90;;;21.76;52.54;102153.44;4822405;29;20050;-73
2022/08/31 06:19:22;;;;;;;4.18;2.72;;;21.30;99.90;;;21.85;51.90;102156.81;4822645;29;20058;-73
2022/08/31 06:21:51;;;;;;;4.43;2.63;;;21.40;99.90;;;21.90;51.59;102152.16;4823415;29;20046;-74
2022/08/31 06:24:25;;;;;;;3.25;2.80;;;21.50;99.90;;;22.04;51.51;102160.69;4825627;29;20084;-72
2022/08/31 06:26:58;;;;;;;3.50;3.17;;;21.60;99.90;;;22.08;51.06;102156.97;4825519;29;20176;-71
2022/08/31 06:29:31;;;;;;;5.40;2.80;;;21.70;99.90;;;22.00;51.09;102152.75;4825668;29;20054;-75
2022/08/31 06:32:06;;;;;;;3.22;2.92;;;21.70;99.90;;;22.24;51.10;102154.69;4825649;29;20123;-75
2022/08/31 06:34:39;;;;;;;3.42;2.80;;;21.80;99.90;;;22.33;50.52;102157.06;4825528;29;20138;-74
2022/08/31 06:37:09;;;;;;;6.50;2.83;;;22.00;99.90;;;22.41;51.46;102155.88;4826541;29;20085;-75
2022/08/31 06:40:01;;;;;;;3.40;2.60;;;22.00;99.90;;;22.58;51.41;102159.88;4826682;29;20243;-75
2022/08/31 06:42:42;;;;;;;3.00;2.70;;;22.20;99.90;;;22.66;50.79;102155.09;4825821;29;20058;-75
2022/08/31 06:45:33;;;;;;;3.00;2.80;;;22.30;99.90;;;22.63;50.51;102155.22;4825354;29;20437;-77
2022/08/31 06:48:20;;;;;;;4.60;3.10;;;22.30;99.90;;;22.79;50.26;102168.13;4826625;29;20562;-78
2022/08/31 06:50:56;;;;;;;8.32;3.30;;;22.40;99.90;;;22.94;50.65;102162.19;4826439;29;20440;-64
2022/08/31 06:53:26;;;;;;;2.78;2.50;;;22.50;99.90;;;23.02;50.13;102176.31;4825285;29;20462;-64
2022/08/31 06:56:20;;;;;;;6.82;2.85;;;22.60;99.90;;;23.20;49.66;102162.16;4808492;29;20058;-67
2022/08/31 06:59:13;;;;;;;3.25;2.85;;;22.80;99.90;;;23.19;49.62;102168.50;4821042;29;20181;-63
2022/08/31 07:01:51;;;;;;;3.33;3.05;;;22.90;99.90;;;23.12;49.77;102161.56;4826129;29;20054;-64
2022/08/31 07:04:25;;;;;;;3.80;2.78;;;22.80;99.90;;;23.40;49.56;102176.81;4825328;29;20421;-64
2022/08/31 07:06:54;;;;;;;5.55;3.03;;;23.00;99.90;;;23.28;49.47;102151.09;4824853;29;20062;-64
2022/08/31 07:09:22;;;;;;;6.50;3.13;;;23.10;99.90;;;23.63;49.48;102183.13;4825021;29;20081;-64
2022/08/31 07:11:52;;;;;;;3.20;2.90;;;23.20;99.90;;;23.62;49.12;102191.25;4824976;29;20083;-65
2022/08/31 07:14:25;;;;;;;6.18;2.80;;;23.30;99.90;;;23.77;49.12;102193.41;4826102;29;20061;-65
2022/08/31 07:16:57;;;;;;;6.45;2.50;;;23.40;99.90;;;23.91;48.94;102191.94;4824791;29;20050;-62
2022/08/31 07:19:27;;;;;;;;;;;23.50;99.90;;;23.91;48.74;102186.53;4825329;29;20123;-63
2022/08/31 07:21:59;;;;;;;3.30;2.75;;;23.60;99.90;;;23.86;48.58;102195.75;4825086;29;19973;-62
2022/08/31 07:24:30;;;;;;;5.95;2.60;;;23.50;99.90;;;23.98;48.75;102193.44;4824767;29;20081;-62
2022/08/31 07:27:03;;;;;;;4.78;2.80;;;23.60;99.90;;;24.15;48.84;102196.44;4824693;29;20058;-62
2022/08/31 07:29:44;;;;;;;3.20;2.90;;;23.70;99.90;;;24.18;48.63;102184.59;4824715;29;20054;-61
2022/08/31 07:32:17;;;;;;;3.13;2.90;;;23.80;99.90;;;24.33;48.67;102200.19;4824462;29;20050;-61
2022/08/31 07:34:45;;;;;;;3.28;2.53;;;23.90;99.90;;;24.43;48.24;102184.50;4823389;29;20111;-61
2022/08/31 07:43:11;;;;;;;3.45;2.65;;;23.90;99.90;;;24.38;47.58;102195.50;4824497;29;20383;-62
2022/08/31 07:45:42;;;;;;;3.22;2.67;;;24.00;99.90;;;24.37;46.98;102199.13;4825686;29;20085;-61
2022/08/31 07:48:14;;;;;;;9.65;8.40;;;24.00;99.90;;;24.44;46.99;102200.66;4824343;29;20058;-61
2022/08/31 07:51:11;;;;;;;98.10;78.80;;;24.10;99.90;;;24.11;46.25;102193.91;4824566;29;20057;-63
2022/08/31 07:54:03;;;;;;;65.07;56.80;;;23.90;99.90;;;24.23;45.99;102197.94;4825788;29;20065;-61
2022/08/31 07:56:42;;;;;;;20.00;17.27;;;23.90;99.90;;;24.34;46.16;102199.28;4824435;29;20409;-63
2022/08/31 07:59:13;;;;;;;4.15;3.70;;;24.00;99.90;;;24.32;46.27;102189.44;4824463;29;20058;-61
2022/08/31 08:01:45;;;;;;;3.85;2.30;;;24.00;99.90;;;24.15;46.42;102204.53;4824285;29;20629;-60
2022/08/31 08:04:24;;;;;;;2.50;2.30;;;23.90;99.90;;;24.18;47.10;102196.28;4824228;29;20458;-62
2022/08/31 08:07:04;;;;;;;5.75;2.55;;;23.80;99.90;;;24.33;47.48;102205.59;4825548;29;20085;-61
2022/08/31 08:09:54;;;;;;;3.50;2.28;;;23.90;99.90;;;24.48;47.11;102201.41;4825386;29;20061;-61
2022/08/31 08:12:59;;;;;;;3.72;2.53;;;24.20;99.90;;;24.49;46.68;102208.59;4817352;29;20054;-61
2022/08/31 08:15:56;;;;;;;4.30;2.58;;;24.20;99.90;;;24.74;45.09;102195.84;4825463;29;20053;-61
2022/08/31 08:18:52;;;;;;;4.97;2.70;;;24.40;99.90;;;24.86;44.22;102209.75;4810550;29;20404;-61
2022/08/31 08:21:26;;;;;;;5.53;2.60;;;24.50;99.90;;;24.95;44.39;102211.19;4823855;29;20069;-61
2022/08/31 08:23:55;;;;;;;4.72;2.70;;;24.60;99.90;;;25.16;43.56;102220.22;4824919;29;20046;-61
2022/08/31 08:26:32;;;;;;;4.55;2.50;;;24.80;99.90;;;25.32;42.95;102213.19;4825160;29;20074;-61
2022/08/31 08:29:07;;;;;;;2.88;2.38;;;25.00;99.90;;;25.14;42.60;102211.28;4823888;29;20054;-61
2022/08/31 08:31:44;;;;;;;4.13;2.63;;;24.80;99.90;;;25.09;42.50;102208.75;4823903;29;20051;-61
2022/08/31 08:34:14;;;;;;;4.28;2.42;;;24.80;99.90;;;25.39;43.12;102218.31;4824118;29;20409;-62
2022/08/31 08:36:44;;;;;;;;;;;25.00;99.90;;;25.54;43.38;102220.31;4824181;29;20400;-62
2022/08/31 08:39:12;;;;;;;2.80;2.60;;;25.20;99.90;;;25.61;42.30;102210.97;4824004;29;19924;-61
2022/08/31 08:41:56;;;;;;;4.13;2.33;;;25.30;99.90;;;25.88;42.55;102215.13;4823648;29;20050;-61
2022/08/31 08:44:28;;;;;;;3.10;2.10;;;25.50;99.90;;;26.02;42.32;102214.47;4823356;29;20054;-61
2022/08/31 08:47:01;;;;;;;4.13;2.35;;;25.70;99.90;;;26.06;42.14;102210.69;4823641;29;20095;-61
2022/08/31 08:49:45;;;;;;;3.22;2.20;;;25.70;99.90;;;26.24;42.13;102222.50;4823663;29;20055;-61
2022/08/31 08:52:26;;;;;;;3.30;2.25;;;25.90;99.90;;;26.14;41.08;102203.06;4823570;29;20054;-65
2022/08/31 08:54:59;;;;;;;5.45;2.20;;;25.80;99.90;;;26.17;40.96;102219.19;4824025;29;20123;-62
2022/08/31 08:57:33;;;;;;;4.97;2.20;;;25.90;99.90;;;26.12;40.33;102215.84;4824659;29;20089;-63
2022/08/31 09:00:09;;;;;;;4.38;2.20;;;25.90;99.90;;;26.20;41.55;102234.47;4823280;29;20050;-63
2022/08/31 09:02:47;;;;;;;6.40;2.53;;;25.90;99.90;;;26.44;41.39;102222.44;4823489;29;20052;-63
2022/08/31 09:05:53;;;;;;;4.38;2.13;;;26.00;99.90;;;26.45;40.85;102232.31;4823475;29;20058;-65
2022/08/31 09:09:07;;;;;;;3.58;2.42;;;26.10;99.90;;;26.62;40.65;102233.25;4823287;29;20405;-65
2022/08/31 09:11:55;;;;;;;4.13;2.38;;;26.20;99.90;;;26.76;40.91;102230.78;4823387;29;20405;-62
2022/08/31 09:14:48;;;;;;;4.15;2.40;;;26.40;99.90;;;26.78;40.25;102234.31;4823330;29;20051;-63
2022/08/31 09:17:36;;;;;;;2.55;2.35;;;26.40;99.90;;;26.88;40.39;102234.72;4823214;29;20047;-70
2022/08/31 09:20:08;;;;;;;2.63;2.10;;;26.50;99.90;;;27.00;40.08;102233.22;4823351;29;20110;-68
2022/08/31 09:22:48;;;;;;;3.67;2.10;;;26.60;99.90;;;26.97;40.06;102212.50;4824466;29;20051;-64
2022/08/31 09:25:27;;;;;;;3.67;2.50;;;26.70;99.90;;;27.04;40.41;102223.97;4823249;29;20054;-66
2022/08/31 09:28:15;;;;;;;3.28;2.10;;;26.80;99.90;;;27.18;40.47;102238.56;4824601;29;20061;-65
2022/08/31 09:30:51;;;;;;;33.13;23.40;;;26.80;99.90;;;27.16;40.56;102224.19;4824360;29;20095;-66
2022/08/31 09:33:23;;;;;;;79.72;54.05;;;26.90;99.90;;;27.44;40.45;102235.44;4823502;29;20061;-65
2022/08/31 09:35:55;;;;;;;21.65;18.33;;;27.10;99.90;;;27.38;40.23;102218.56;4824097;29;20050;-67
2022/08/31 09:38:31;;;;;;;12.65;9.45;;;27.20;99.90;;;27.33;38.98;102226.94;4823988;29;20126;-67
2022/08/31 09:41:02;;;;;;;5.80;2.80;;;27.20;99.90;;;27.35;39.81;102232.31;4822970;29;20128;-63
2022/08/31 09:43:37;;;;;;;6.60;2.40;;;27.00;99.90;;;26.47;39.74;102219.56;4824550;29;20058;-63
2022/08/31 09:46:09;;;;;;;3.55;2.20;;;26.40;99.90;;;26.40;40.08;102209.97;4822942;29;20057;-63
2022/08/31 09:48:50;;;;;;;2.53;2.33;;;26.20;99.90;;;26.54;40.17;102218.28;4824149;29;20061;-63
2022/08/31 09:51:26;;;;;;;2.42;2.05;;;26.20;99.90;;;26.34;40.50;102188.56;4823882;29;20542;-63
2022/08/31 09:56:57;;;;;;;4.53;2.40;;;26.20;99.90;;;25.91;40.66;102214.09;4825128;29;20462;-62
2022/08/31 09:59:36;;;;;;;4.20;2.60;;;25.80;99.90;;;25.96;41.81;102214.75;4827394;29;20057;-63
2022/08/31 10:02:11;;;;;;;4.82;2.30;;;25.60;99.90;;;26.23;41.37;102212.63;4827171;29;20140;-62
2022/08/31 10:04:51;;;;;;;4.28;2.42;;;25.80;99.90;;;26.60;41.96;102212.56;4827609;29;20058;-64
2022/08/31 10:07:36;;;;;;;5.93;2.35;;;26.20;99.90;;;26.83;40.95;102215.03;4827202;29;20550;-65
2022/08/31 10:10:10;;;;;;;7.05;2.42;;;26.40;99.90;;;26.91;40.19;102210.09;4827249;29;20404;-62
2022/08/31 10:13:04;;;;;;;2.63;2.28;;;26.60;99.90;;;27.05;40.40;102204.84;4827518;29;20270;-66
2022/08/31 10:15:40;;;;;;;3.88;2.40;;;26.70;99.90;;;27.25;40.46;102206.53;4827231;29;20046;-62
2022/08/31 10:18:15;;;;;;;3.58;2.47;;;26.90;99.90;;;26.93;39.25;102118.53;4827054;29;20088;-66
2022/08/31 10:20:50;;;;;;;4.55;2.28;;;27.10;99.90;;;27.32;39.00;102206.16;4826893;29;20107;-61
2022/08/31 10:23:32;;;;;;;6.38;2.70;;;27.10;99.90;;;27.16;39.48;102215.19;4826684;29;20050;-63
2022/08/31 10:26:10;;;;;;;7.30;2.53;;;26.90;99.90;;;27.36;40.12;102190.56;4826730;29;20497;-77
2022/08/31 10:28:49;;;;;;;3.42;2.58;;;27.00;99.90;;;27.27;39.19;102194.63;4827199;29;20061;-70
2022/08/31 10:31:23;;;;;;;3.63;2.40;;;27.00;99.90;;;27.37;39.40;102189.63;4826721;29;20054;-70
2022/08/31 10:36:48;;;;;;;3.17;2.40;;;27.20;99.90;;;27.68;39.07;102193.31;4826554;29;20077;-70
2022/08/31 10:39:28;;;;;;;3.30;2.40;;;27.30;99.90;;;27.70;38.69;102186.91;4825490;29;20054;-69
2022/08/31 10:42:04;;;;;;;4.32;2.50;;;27.40;99.90;;;27.46;39.20;102181.84;4826692;29;20135;-69
2022/08/31 10:44:39;;;;;;;4.50;2.42;;;27.20;99.90;;;26.17;40.43;102167.66;4826719;29;20110;-70
2022/08/31 10:47:14;;;;;;;4.25;2.20;;;26.10;99.90;;;26.74;40.17;102178.38;4826386;29;20486;-70
2022/08/31 10:50:03;;;;;;;6.35;2.50;;;26.40;99.90;;;26.57;40.09;102172.91;4826890;29;20103;-70
2022/08/31 10:52:37;;;;;;;5.28;2.53;;;26.30;99.90;;;26.74;39.82;102161.19;4826413;29;20071;-70
2022/08/31 10:55:28;;;;;;;3.55;2.78;;;26.40;99.90;;;26.84;39.71;102173.34;4826342;29;20050;-70
2022/08/31 10:58:19;;;;;;;5.13;2.75;;;26.50;99.90;;;26.76;39.74;102171.03;4826126;29;20056;-70